Latest Coastal Weather Observations for Williamtown

IDN60701

Issued at 11:31 am EST Tuesday 28 July 2015 (issued every 10 minutes, with the page automatically refreshed every 10 minutes)

About coastal observations | Map of coastal stations | Coastal observations for NSW | Marine services | Other Formats
Station Details ID: 061078 Name: WILLIAMTOWN RAAF Lat: -32.79 Lon: 151.84 Height: 9.0 m
Data from the previous 72 hours. | See also: Recent months at Williamtown
Date/Time
EST
Temp

°C
Wind Pressure Rain
since 9am
mm
Weather Cloud Vis
km
Sea
Height
m
Swell
Dir
 
Speed
knots
Gust
knots
hPa Trend Height
m
Period
s
Dir
28/11:00am 12.8 W 11 16 1033.2 - 0.0 - - 10 - - - -
28/10:30am 11.9 WNW 14 18 1033.4 - 0.0 - - 10 - - - -
28/10:00am 11.1 WNW 15 19 1033.4 - 0.0 - - 10 - - - -
28/09:00am 9.1 WNW 16 23 1033.2 R 0.0 Fine Mostly clear 40 - - - -
28/08:30am 8.0 WNW 16 21 1032.9 - 0.0 - - 10 - - - -
28/08:00am 6.8 WNW 16 21 1032.7 - 0.0 - - 10 - - - -
28/07:30am 5.8 WNW 15 19 1032.4 - 0.0 - - 10 - - - -
28/07:00am 5.3 WNW 12 16 1032.2 - 0.0 - - 10 - - - -
28/06:00am 5.6 WNW 15 21 1031.2 R 0.0 Fine Clear 40 - - - -
28/05:30am 5.6 WNW 14 17 1031.0 - 0.0 - - 10 - - - -
28/05:00am 5.6 WNW 13 17 1030.5 - 0.0 - - 10 - - - -
28/04:30am 5.6 WNW 12 16 1030.4 - 0.0 - - 10 - - - -
28/04:00am 6.0 WNW 14 20 1030.1 - 0.0 - - 10 - - - -
28/03:30am 5.9 WNW 11 14 1030.0 - 0.0 - - 10 - - - -
28/03:00am 6.5 WNW 15 20 1029.8 R 0.0 - - 10 - - - -
28/02:30am 6.4 WNW 15 18 1029.8 - 0.0 - - 10 - - - -
28/02:00am 6.6 WNW 14 19 1030.0 - 0.0 - - 10 - - - -
28/01:30am 6.5 WNW 14 17 1029.8 - 0.0 - - 10 - - - -
28/01:00am 6.6 WNW 14 18 1029.8 - 0.0 - - 10 - - - -
28/12:30am 6.8 WNW 13 16 1029.7 - 0.0 - - 10 - - - -
 
Date/Time
EST
Temp

°C
Wind Pressure Rain
since 9am
mm
Weather Cloud Vis
km
Sea
Height
m
Swell
Dir
 
Speed
knots
Gust
knots
hPa Trend Height
m
Period
s
Dir
27/11:30pm 6.6 NW 11 13 1029.5 - 0.0 - - 10 - - - -
27/11:00pm 6.2 NW 8 9 1029.5 - 0.0 - - 10 - - - -
27/10:30pm 6.7 WNW 9 12 1029.3 - 0.0 - - 10 - - - -
27/10:00pm 7.4 WNW 10 13 1029.2 - 0.0 - - 10 - - - -
27/09:30pm 7.3 WNW 11 13 1029.0 - 0.0 - - 10 - - - -
27/09:00pm 7.0 WNW 9 10 1028.7 R 0.0 - - 10 - - - -
27/08:30pm 6.8 NW 7 8 1028.2 - 0.0 - - 10 - - - -
27/08:00pm 7.5 WNW 9 10 1027.9 - 0.0 - - 10 - - - -
27/07:30pm 8.8 WNW 9 11 1028.0 - 0.0 - - 10 - - - -
27/07:00pm 9.7 W 9 10 1027.5 - 0.0 - - 10 - - - -
27/06:30pm 8.8 WNW 9 11 1027.0 - 0.0 - - 10 - - - -
27/06:00pm 9.1 WNW 5 6 1026.7 R 0.0 - - 10 - - - -
27/05:30pm 10.4 WNW 6 8 1026.2 - 0.0 - - 10 - - - -
27/05:00pm 12.3 W 8 10 1025.9 - 0.0 - - 10 - - - -
27/04:30pm 13.8 W 9 14 1025.5 - 0.0 - - 10 - - - -
27/04:00pm 14.6 W 13 17 1025.0 - 0.0 - - 10 - - - -
27/03:30pm 14.9 W 14 19 1024.7 - 0.0 - - 10 - - - -
27/03:00pm 15.1 WSW 16 21 1024.3 R 0.0 Fine Mostly clear 40 - - - -
27/02:30pm 15.6 W 15 21 1024.1 - 0.0 - - 10 - - - -
27/02:00pm 14.9 W 16 22 1024.1 - 0.0 - - 10 - - - -
27/01:30pm 15.0 WNW 14 18 1024.3 - 0.0 - - 10 - - - -
27/01:00pm 14.4 W 16 21 1024.5 - 0.0 - - 10 - - - -
27/12:30pm 13.8 WNW 17 24 1025.0 - 0.0 - - 10 - - - -
27/12:00pm 13.6 WNW 19 25 1025.2 R 0.0 Fine Mostly clear 40 - - - -
27/11:30am 12.9 WNW 17 22 1025.8 - 0.0 - - 10 - - - -
27/11:00am 12.7 WNW 18 23 1026.1 - 0.0 - - 10 - - - -
27/10:30am 12.1 WNW 19 26 1026.2 - 0.0 - - 10 - - - -
27/10:00am 11.7 WNW 20 28 1026.0 - 0.0 - - 10 - - - -
27/09:40am 11.4 WNW 18 30 1026.0 - 0.0 - - 10 - - - -
27/09:30am 11.1 WNW 20 28 1026.1 - 0.0 - - 10 - - - -
27/09:11am 10.6 WNW 20 30 1026.1 - 0.0 - - 10 - - - -
27/09:00am 10.4 WNW 19 27 1026.0 R 0.0 Fine Mostly clear 40 - - - -
27/08:30am 9.6 WNW 18 27 1025.8 - 0.0 - - 10 - - - -
27/08:00am 8.8 WNW 18 23 1025.4 - 0.0 - - 10 - - - -
27/07:30am 8.2 WNW 18 23 1024.8 - 0.0 - - 10 - - - -
27/07:00am 7.7 WNW 17 23 1024.5 - 0.0 - - 10 - - - -
27/06:30am 7.8 WNW 16 21 1024.2 - 0.0 - - 10 - - - -
27/06:00am 8.1 WNW 17 25 1023.8 R 0.0 Fine Clear 40 - - - -
27/05:30am 8.1 WNW 15 21 1023.2 - 0.0 - - 10 - - - -
27/05:00am 8.5 WNW 14 19 1023.0 - 0.0 - - 10 - - - -
27/04:30am 9.0 WNW 13 19 1022.8 - 0.0 - - 10 - - - -
27/04:00am 9.2 WNW 12 18 1022.5 - 0.0 - - 10 - - - -
27/03:30am 9.9 WSW 10 14 1022.5 - 0.0 - - 10 - - - -
27/03:00am 10.2 W 11 18 1022.4 R 0.0 - - 10 - - - -
27/02:30am 10.2 W 11 15 1022.4 - 0.0 - - 10 - - - -
27/02:00am 11.0 W 12 17 1021.9 - 0.0 - - 10 - - - -
27/01:30am 11.7 W 13 19 1022.0 - 0.0 - Partly cloudy 10 - - - -
27/01:00am 11.6 SW 13 19 1021.7 - 0.0 - - 10 - - - -
27/12:30am 12.0 WSW 13 17 1021.0 - 0.0 - Partly cloudy 10 - - - -
27/12:00am 12.3 WSW 11 14 1020.8 R 0.0 - Mostly clear 10 - - - -
 
Date/Time
EST
Temp

°C
Wind Pressure Rain
since 9am
mm
Weather Cloud Vis
km
Sea
Height
m
Swell
Dir
 
Speed
knots
Gust
knots
hPa Trend Height
m
Period
s
Dir
26/11:30pm 12.5 WSW 6 10 1020.9 - 0.0 - Partly cloudy 10 - - - -
26/11:00pm 13.7 SSW 6 7 1020.6 - 0.0 - Partly cloudy 10 - - - -
26/10:30pm 14.4 W 10 17 1019.8 - 0.0 - Partly cloudy 10 - - - -
26/10:00pm 15.0 W 10 15 1019.6 - 0.0 - Partly cloudy 10 - - - -
26/09:30pm 15.0 WNW 12 18 1019.0 - 0.0 - - 10 - - - -
26/09:00pm 15.4 WNW 17 23 1018.2 R 0.0 - - 10 - - - -
26/08:30pm 15.7 WNW 22 31 1017.9 - 0.0 - - 10 - - - -
26/08:17pm 15.7 WNW 20 30 1017.6 - 0.0 - - 10 - - - -
26/08:00pm 15.9 WNW 19 26 1017.5 - 0.0 - - 10 - - - -
26/07:30pm 15.7 WNW 17 22 1017.4 - 0.0 - - 10 - - - -
26/07:00pm 15.5 WNW 14 18 1016.8 - 0.0 - - 10 - - - -
26/06:30pm 15.8 WNW 15 19 1016.4 - 0.0 - - 10 - - - -
26/06:00pm 16.5 WNW 14 18 1015.9 R 0.0 - Mostly clear 10 - - - -
26/05:30pm 17.2 NW 16 23 1015.7 - 0.0 - - 10 - - - -
26/05:00pm 17.5 WNW 19 25 1015.7 - 0.0 - - 10 - - - -
26/04:36pm 18.3 WNW 22 32 1015.3 - 0.0 - - 10 - - - -
26/04:30pm 18.4 WNW 23 32 1015.2 - 0.0 - - 10 - - - -
26/04:09pm 18.7 WNW 23 33 1014.7 - 0.0 - - 10 - - - -
26/04:00pm 18.8 WNW 23 31 1014.6 - 0.0 - - 10 - - - -
26/03:30pm 19.2 NW 29 39 1014.6 - 0.0 - - 10 - - - -
26/03:00pm 19.4 NW 30 41 1014.4 F 0.0 - - 10 - - - -
26/02:37pm 19.5 WNW 25 35 1014.2 - 0.0 - - 10 - - - -
26/02:30pm 19.8 WNW 26 34 1014.2 - 0.0 - - 10 - - - -
26/02:00pm 19.6 WNW 22 33 1014.4 - 0.0 - - 10 - - - -
26/01:50pm 19.7 WNW 22 32 1014.4 - 0.0 - - 10 - - - -
26/01:30pm 19.2 WNW 23 31 1014.6 - 0.0 - - 10 - - - -
26/01:16pm 19.6 WNW 22 32 1014.7 - 0.0 - - 10 - - - -
26/01:00pm 19.5 NW 25 34 1015.2 - 0.0 - - 10 - - - -
26/12:30pm 19.0 WNW 24 40 1015.7 - 0.0 - - 10 - - - -
26/12:27pm 18.9 WNW 22 40 1015.8 - 0.0 - - 10 - - - -
26/12:03pm 18.4 NW 20 30 1016.1 - 0.0 - - 10 - - - -
26/12:00pm 18.6 NW 21 28 1016.2 F 0.0 - Mostly clear 10 - - - -
26/11:38am 17.3 NW 23 33 1016.5 - 0.0 - - 10 - - - -
26/11:30am 17.1 WNW 23 30 1016.6 - 0.0 - - 10 - - - -
26/11:03am 16.8 WNW 20 30 1017.5 - 0.0 - - 10 - - - -
26/11:00am 16.8 WNW 21 30 1017.6 - 0.0 - - 10 - - - -
26/10:45am 16.5 NW 17 27 1018.1 - 0.0 - - 10 - - - -
26/10:30am 15.8 NW 15 21 1018.1 - 0.0 - - 10 - - - -
26/10:00am 15.2 WNW 13 19 1018.7 - 0.0 - - 10 - - - -
26/09:30am 14.1 NW 12 16 1018.8 - 0.0 - - 10 - - - -
26/09:00am 13.2 W 7 9 1019.1 F 0.0 - Cloudy 10 - - - -
26/08:30am 12.7 NW 11 15 1019.0 - 0.0 - - 10 - - - -
26/08:00am 9.0 N 3 5 1019.2 - 0.0 - - 10 - - - -
26/07:30am 7.0 CALM 0 0 1019.4 - 0.0 - - 10 - - - -
26/07:00am 7.6 NNW 3 4 1019.1 - 0.0 - - 10 - - - -
26/06:30am 6.8 NNE 1 4 1019.1 - 0.0 - - 10 - - - -
26/06:00am 7.7 CALM 0 0 1019.1 F 0.0 - - 10 - - - -
26/05:30am 8.3 NNW 3 5 1018.6 - 0.0 - - 10 - - - -
26/05:00am 9.0 NW 3 4 1018.6 - 0.0 - - 10 - - - -
26/04:30am 9.7 WNW 5 5 1018.8 - 0.0 - - 10 - - - -
26/04:00am 10.5 WNW 5 6 1018.5 - 0.0 - - 10 - - - -
26/03:30am 10.4 WNW 5 6 1018.3 - 0.0 - - 10 - - - -
26/03:00am 11.3 NW 6 7 1018.7 F 0.0 - Cloudy 10 - - - -
26/02:30am 11.5 NNW 7 9 1018.9 - 0.0 - - 10 - - - -
26/02:00am 9.0 CALM 0 0 1019.5 - 0.0 - - 10 - - - -
26/01:30am 10.9 NNW 4 5 1019.6 - 0.0 - - 10 - - - -
26/01:00am 10.2 NNW 3 6 1019.8 - 0.0 - - 10 - - - -
26/12:30am 10.1 NNW 3 5 1020.0 - 0.0 - - 10 - - - -
26/12:00am 10.8 NNW 4 5 1019.7 R 0.0 - - 10 - - - -
 
Date/Time
EST
Temp

°C
Wind Pressure Rain
since 9am
mm
Weather Cloud Vis
km
Sea
Height
m
Swell
Dir
 
Speed
knots
Gust
knots
hPa Trend Height
m
Period
s
Dir
25/11:30pm 9.5 CALM 0 0 1020.0 - 0.0 - - 10 - - - -
25/11:00pm 10.4 CALM 0 0 1020.0 - 0.0 - - 10 - - - -
25/10:30pm 10.7 CALM 0 0 1019.9 - 0.0 - - 10 - - - -
25/10:00pm 11.9 NW 4 5 1020.3 - 0.0 - - 10 - - - -
25/09:30pm 12.8 NW 4 5 1020.3 - 0.0 - - 10 - - - -
25/09:00pm 12.7 NW 7 8 1020.3 R 0.0 - - 10 - - - -
25/08:30pm 13.2 NW 7 8 1019.9 - 0.0 - - 10 - - - -
25/08:00pm 14.0 NNW 7 9 1019.8 - 0.0 - - 10 - - - -
25/07:30pm 14.6 N 6 8 1019.4 - 0.0 - - 10 - - - -
25/07:00pm 14.5 NNW 8 10 1019.0 - 0.0 - - 10 - - - -
25/06:30pm 14.7 NW 9 12 1018.7 - 0.0 - - 10 - - - -
25/06:00pm 15.0 NNW 6 8 1018.4 R 0.0 - - 10 - - - -
25/05:30pm 16.2 NW 10 14 1018.0 - 0.0 - - 10 - - - -
25/05:00pm 16.6 NW 11 14 1017.6 - 0.0 - - 10 - - - -
25/04:30pm 18.1 NW 10 14 1017.4 - 0.0 - - 10 - - - -
25/04:00pm 18.9 NW 13 17 1017.3 - 0.0 - - 10 - - - -
25/03:30pm 19.3 NW 16 23 1017.1 - 0.0 - - 10 - - - -
25/03:00pm 19.8 WNW 15 23 1016.9 R 0.0 - - 10 - - - -
25/02:30pm 19.8 WNW 18 24 1017.0 - 0.0 - - 10 - - - -
25/02:00pm 19.5 WNW 20 27 1017.0 - 0.0 - - 10 - - - -
25/01:30pm 19.5 WNW 18 26 1017.2 - 0.0 - - 10 - - - -
25/01:00pm 19.3 WNW 19 28 1017.4 - 0.0 - - 10 - - - -
25/12:30pm 19.2 WNW 18 26 1017.8 - 0.0 - - 10 - - - -
25/12:00pm 18.9 WNW 15 21 1018.4 R 0.0 - - 10 - - - -

Other Formats:

Comma delimited format used in spreadsheet applications
http://www.bom.gov.au/fwo/IDN60701/IDN60701.94776.axf

JavaScript Object Notation format (JSON) in row-major order
http://www.bom.gov.au/fwo/IDN60701/IDN60701.94776.json